Time;durP1;ratioP1;P1;durP2;ratioP2;P2;SDS_P1;SDS_P2;PMS_P1;PMS_P2;Temp;Humidity;BMP_temperature;BMP_pressure;BME280_temperature;BME280_humidity;BME280_pressure;Samples;Min_cycle;Max_cycle;Signal;HPM_P1;HPM_P2
2023/04/21 00:01:07;;;;;;;15.52;13.05;;;7.80;99.90;;;;;;5050337;28;20223;-76
2023/04/21 00:03:36;;;;;;;15.27;12.77;;;7.80;99.90;;;;;;5040568;28;20173;-77
2023/04/21 00:06:02;;;;;;;16.88;13.70;;;7.70;99.90;;;;;;5048032;28;20562;-76
2023/04/21 00:08:27;;;;;;;15.02;12.65;;;7.60;99.90;;;;;;5049075;28;20176;-76
2023/04/21 00:10:53;;;;;;;14.57;13.05;;;7.50;99.90;;;;;;5042515;28;20197;-75
2023/04/21 00:13:18;;;;;;;15.70;13.10;;;7.50;99.90;;;;;;5046739;28;20709;-76
2023/04/21 00:15:44;;;;;;;14.63;12.40;;;7.60;99.90;;;;;;5053743;28;20241;-77
2023/04/21 00:18:12;;;;;;;14.55;12.20;;;7.60;99.90;;;;;;5045223;28;20176;-76
2023/04/21 00:20:38;;;;;;;13.88;12.10;;;7.60;99.90;;;;;;5046043;28;20676;-77
2023/04/21 00:23:03;;;;;;;17.00;13.20;;;7.60;99.90;;;;;;5044234;28;20233;-78
2023/04/21 00:25:29;;;;;;;14.95;13.13;;;7.50;99.90;;;;;;5042717;28;20213;-77
2023/04/21 00:27:55;;;;;;;15.18;12.93;;;7.40;99.90;;;;;;5049757;28;20214;-78
2023/04/21 00:30:20;;;;;;;16.10;13.02;;;7.40;99.90;;;;;;5050821;28;20195;-76
2023/04/21 00:32:46;;;;;;;15.20;13.02;;;7.30;99.90;;;;;;5049774;28;20589;-77
2023/04/21 00:35:12;;;;;;;13.57;12.13;;;7.30;99.90;;;;;;5052977;28;20257;-77
2023/04/21 00:37:39;;;;;;;15.30;12.45;;;7.20;99.90;;;;;;5034747;28;20276;-75
2023/04/21 00:40:05;;;;;;;15.02;11.98;;;7.20;99.90;;;;;;5050149;28;20247;-75
2023/04/21 00:42:31;;;;;;;12.73;11.43;;;7.20;99.90;;;;;;5050773;28;20355;-76
2023/04/21 00:44:56;;;;;;;13.70;12.30;;;7.20;99.90;;;;;;5053615;28;20203;-75
2023/04/21 00:47:22;;;;;;;13.75;12.32;;;7.20;99.90;;;;;;5053749;28;20237;-75
2023/04/21 00:49:47;;;;;;;14.68;12.68;;;7.20;99.90;;;;;;5049911;28;20655;-75
2023/04/21 00:52:16;;;;;;;14.55;11.52;;;7.20;99.90;;;;;;5034266;28;20490;-75
2023/04/21 00:54:42;;;;;;;13.73;11.70;;;7.20;99.90;;;;;;5047803;28;20699;-76
2023/04/21 00:57:09;;;;;;;14.32;12.35;;;7.20;99.90;;;;;;5054087;28;20512;-76
2023/04/21 00:59:35;;;;;;;15.23;12.98;;;7.20;99.90;;;;;;5050847;28;20201;-76
2023/04/21 01:02:00;;;;;;;16.77;12.70;;;7.10;99.90;;;;;;5049998;28;20175;-76
2023/04/21 01:04:27;;;;;;;14.65;13.13;;;7.10;99.90;;;;;;5050289;28;20180;-75
2023/04/21 01:06:53;;;;;;;14.82;13.00;;;7.10;99.90;;;;;;5050324;28;20181;-76
2023/04/21 01:09:19;;;;;;;12.90;11.60;;;7.00;99.90;;;;;;5047610;28;20479;-76
2023/04/21 01:12:06;;;;;;;14.40;12.90;;;7.00;99.90;;;;;;5048802;28;20270;-75
2023/04/21 01:14:31;;;;;;;14.02;12.30;;;7.10;99.90;;;;;;5054310;28;20285;-75
2023/04/21 01:16:58;;;;;;;14.07;12.40;;;7.10;99.90;;;;;;5049451;28;20695;-76
2023/04/21 01:19:25;;;;;;;13.18;11.77;;;7.10;99.90;;;;;;5046454;28;20176;-76
2023/04/21 01:21:56;;;;;;;14.65;12.20;;;7.10;99.90;;;;;;5050958;28;20189;-76
2023/04/21 01:24:23;;;;;;;15.20;13.25;;;7.10;99.90;;;;;;5051205;28;20203;-76
2023/04/21 01:26:49;;;;;;;14.90;13.30;;;7.00;99.90;;;;;;5037424;28;20562;-76
2023/04/21 01:29:15;;;;;;;13.88;12.38;;;7.00;99.90;;;;;;5052600;28;20259;-76
2023/04/21 01:31:41;;;;;;;14.57;12.68;;;7.00;99.90;;;;;;5055187;28;20198;-76
2023/04/21 01:34:07;;;;;;;16.63;12.77;;;7.00;99.90;;;;;;5049066;28;20728;-76
2023/04/21 01:36:35;;;;;;;15.55;13.02;;;6.90;99.90;;;;;;5045806;28;20211;-75
2023/04/21 01:39:01;;;;;;;14.25;12.80;;;6.80;99.90;;;;;;5045180;28;20609;-75
2023/04/21 01:41:27;;;;;;;14.70;12.30;;;6.80;99.90;;;;;;5049466;28;20216;-75
2023/04/21 01:43:52;;;;;;;14.30;12.80;;;6.80;99.90;;;;;;5054037;28;20666;-75
2023/04/21 01:46:19;;;;;;;13.50;12.10;;;6.80;99.90;;;;;;5054128;28;20211;-76
2023/04/21 01:48:45;;;;;;;14.38;12.88;;;6.80;99.90;;;;;;5051468;28;20179;-77
2023/04/21 01:51:11;;;;;;;13.95;12.32;;;6.80;99.90;;;;;;5043567;28;20187;-77
2023/04/21 01:53:36;;;;;;;14.50;12.95;;;6.80;99.90;;;;;;5049006;28;20176;-77
2023/04/21 01:56:02;;;;;;;15.45;12.68;;;6.70;99.90;;;;;;5047520;28;20261;-77
2023/04/21 01:58:27;;;;;;;13.93;12.52;;;6.70;99.90;;;;;;5047996;28;20176;-77
2023/04/21 02:00:53;;;;;;;15.02;12.98;;;6.70;99.90;;;;;;5048233;28;20629;-77
2023/04/21 02:03:19;;;;;;;13.27;11.98;;;6.70;99.90;;;;;;5047817;28;20179;-76
2023/04/21 02:05:44;;;;;;;13.10;10.95;;;6.70;99.90;;;;;;5051638;28;20654;-76
2023/04/21 02:08:10;;;;;;;15.60;11.90;;;6.80;99.90;;;;;;5045738;28;20183;-77
2023/04/21 02:10:36;;;;;;;13.05;11.48;;;6.80;99.90;;;;;;5050513;28;20172;-77
2023/04/21 02:13:01;;;;;;;14.07;12.05;;;6.80;99.90;;;;;;5054634;28;20180;-77
2023/04/21 02:15:27;;;;;;;13.60;12.20;;;6.80;99.90;;;;;;5058150;28;20195;-77
2023/04/21 02:17:52;;;;;;;13.85;11.52;;;6.70;99.90;;;;;;5050135;28;20184;-77
2023/04/21 02:20:18;;;;;;;14.85;12.32;;;6.70;99.90;;;;;;5055142;28;20203;-76
2023/04/21 02:22:44;;;;;;;13.90;12.10;;;6.60;99.90;;;;;;5049825;28;20267;-76
2023/04/21 02:25:09;;;;;;;13.80;12.20;;;6.60;99.90;;;;;;5055152;28;20191;-76
2023/04/21 02:27:35;;;;;;;13.50;11.80;;;6.50;99.90;;;;;;5050542;28;20176;-76
2023/04/21 02:30:00;;;;;;;12.80;11.10;;;6.50;99.90;;;;;;5053351;28;20179;-76
2023/04/21 02:32:27;;;;;;;13.85;12.55;;;6.40;99.90;;;;;;5059275;28;20546;-76
2023/04/21 02:34:52;;;;;;;13.27;11.98;;;6.40;99.90;;;;;;5051170;28;20558;-76
2023/04/21 02:37:18;;;;;;;13.48;11.80;;;6.40;99.90;;;;;;5047684;28;20180;-75
2023/04/21 02:39:44;;;;;;;13.85;11.73;;;6.30;99.90;;;;;;5050589;28;20684;-75
2023/04/21 02:42:10;;;;;;;13.23;11.82;;;6.40;99.90;;;;;;5057651;28;20265;-75
2023/04/21 02:44:38;;;;;;;12.98;11.60;;;6.30;99.90;;;;;;5056570;28;20179;-75
2023/04/21 02:47:04;;;;;;;13.68;12.23;;;6.30;99.90;;;;;;5046055;28;20187;-75
2023/04/21 02:49:30;;;;;;;15.90;12.48;;;6.30;99.90;;;;;;5047857;28;20543;-75
2023/04/21 02:51:57;;;;;;;12.95;11.13;;;6.20;99.90;;;;;;5046307;28;20184;-75
2023/04/21 02:54:22;;;;;;;13.30;12.00;;;6.10;99.90;;;;;;5030798;28;20183;-75
2023/04/21 02:56:48;;;;;;;13.10;11.75;;;6.10;99.90;;;;;;5054632;28;20183;-75
2023/04/21 02:59:16;;;;;;;13.90;11.80;;;6.10;99.90;;;;;;5045203;28;20728;-75
2023/04/21 03:01:42;;;;;;;15.48;12.18;;;6.00;99.90;;;;;;5050719;28;20239;-75
2023/04/21 03:04:08;;;;;;;13.77;12.27;;;6.00;99.90;;;;;;5020314;28;20201;-75
2023/04/21 03:06:33;;;;;;;13.20;11.90;;;6.00;99.90;;;;;;5039055;28;20243;-75
2023/04/21 03:08:59;;;;;;;13.82;12.05;;;5.90;99.90;;;;;;5045953;28;20195;-75
2023/04/21 03:11:25;;;;;;;12.85;11.48;;;5.90;99.90;;;;;;5036893;28;20180;-76
2023/04/21 03:13:50;;;;;;;12.95;11.55;;;6.00;99.90;;;;;;5036940;28;20180;-76
2023/04/21 03:16:16;;;;;;;11.85;10.50;;;5.90;99.90;;;;;;5052235;28;20231;-76
2023/04/21 03:18:42;;;;;;;12.45;11.07;;;5.90;99.90;;;;;;5044724;28;20563;-76
2023/04/21 03:21:07;;;;;;;12.68;11.32;;;6.00;99.90;;;;;;5048637;28;20713;-76
2023/04/21 03:23:33;;;;;;;13.68;12.27;;;5.90;99.90;;;;;;5043002;28;20552;-76
2023/04/21 03:25:59;;;;;;;13.73;12.32;;;5.90;99.90;;;;;;5052013;28;20235;-76
2023/04/21 03:28:24;;;;;;;11.85;10.50;;;6.00;99.90;;;;;;5044823;28;20180;-76
2023/04/21 03:30:50;;;;;;;13.32;11.75;;;6.00;99.90;;;;;;5045579;28;20185;-76
2023/04/21 03:33:15;;;;;;;13.13;11.57;;;5.90;99.90;;;;;;5040398;28;20183;-75
2023/04/21 03:35:41;;;;;;;13.10;11.68;;;6.00;99.90;;;;;;5047640;28;20603;-76
2023/04/21 03:38:06;;;;;;;14.75;12.10;;;6.00;99.90;;;;;;5047099;28;20267;-76
2023/04/21 03:40:32;;;;;;;13.88;11.93;;;5.90;99.90;;;;;;5047317;28;20196;-76
2023/04/21 03:42:58;;;;;;;12.73;11.43;;;5.90;99.90;;;;;;5052365;28;20225;-76
2023/04/21 03:45:23;;;;;;;13.35;11.93;;;6.00;99.90;;;;;;5048023;28;20275;-76
2023/04/21 03:47:55;;;;;;;13.95;12.30;;;5.90;99.90;;;;;;5044735;28;20185;-76
2023/04/21 03:50:21;;;;;;;12.88;11.18;;;5.90;99.90;;;;;;5048182;28;20176;-76
2023/04/21 03:52:47;;;;;;;12.68;11.40;;;6.00;99.90;;;;;;5047758;28;20176;-76
2023/04/21 03:55:12;;;;;;;12.73;11.20;;;5.90;99.90;;;;;;5050451;28;20209;-75
2023/04/21 03:57:40;;;;;;;13.55;12.15;;;5.90;99.90;;;;;;5049946;28;20212;-75
2023/04/21 04:00:09;;;;;;;12.98;11.60;;;5.80;99.90;;;;;;5045070;28;20195;-75
2023/04/21 04:02:35;;;;;;;13.23;11.70;;;5.80;99.90;;;;;;5049890;28;20659;-75
2023/04/21 04:05:02;;;;;;;12.45;11.13;;;5.80;99.90;;;;;;5050207;28;20200;-74
2023/04/21 04:07:28;;;;;;;12.60;11.20;;;5.80;99.90;;;;;;5051211;28;20168;-75
2023/04/21 04:09:54;;;;;;;11.27;10.18;;;5.70;99.90;;;;;;5043754;28;20199;-74
2023/04/21 04:12:19;;;;;;;12.70;11.32;;;5.80;99.90;;;;;;5048428;28;20188;-76
2023/04/21 04:14:45;;;;;;;14.00;11.63;;;5.80;99.90;;;;;;5049860;28;20230;-75
2023/04/21 04:17:11;;;;;;;12.43;11.23;;;5.80;99.90;;;;;;5048186;28;20183;-75
2023/04/21 04:19:36;;;;;;;11.57;10.38;;;5.80;99.90;;;;;;5047437;28;20191;-76
2023/04/21 04:22:02;;;;;;;12.48;10.75;;;5.80;99.90;;;;;;5054666;28;20573;-76
2023/04/21 04:24:28;;;;;;;14.25;11.52;;;5.90;99.90;;;;;;5049714;28;20533;-75
2023/04/21 04:26:54;;;;;;;12.85;11.23;;;5.90;99.90;;;;;;5053223;28;20199;-75
2023/04/21 04:29:21;;;;;;;13.55;11.85;;;6.00;99.90;;;;;;5046682;28;20658;-75
2023/04/21 04:31:50;;;;;;;12.40;11.10;;;6.10;99.90;;;;;;5051660;28;20192;-76
2023/04/21 04:34:16;;;;;;;13.27;11.73;;;6.20;99.90;;;;;;5052362;28;20176;-76
2023/04/21 04:36:42;;;;;;;12.93;11.63;;;6.30;99.90;;;;;;5045660;28;20204;-76
2023/04/21 04:39:09;;;;;;;12.50;11.27;;;6.40;99.90;;;;;;5054263;28;20617;-75
2023/04/21 04:41:35;;;;;;;13.07;11.73;;;6.40;99.90;;;;;;5050011;28;20234;-75
2023/04/21 04:44:04;;;;;;;12.52;10.98;;;6.50;99.90;;;;;;5051141;28;20203;-75
2023/04/21 04:46:30;;;;;;;13.93;12.13;;;6.60;99.90;;;;;;5050186;28;20280;-75
2023/04/21 04:48:55;;;;;;;11.52;10.43;;;6.60;99.90;;;;;;5044256;28;20210;-74
2023/04/21 04:51:22;;;;;;;12.38;11.07;;;6.60;99.90;;;;;;5044142;28;20711;-74
2023/04/21 04:53:47;;;;;;;12.32;11.15;;;6.60;99.90;;;;;;5046933;28;20180;-75
2023/04/21 04:56:13;;;;;;;11.80;10.68;;;6.60;99.90;;;;;;5045295;28;20207;-75
2023/04/21 04:58:39;;;;;;;12.18;10.90;;;6.60;99.90;;;;;;5047667;28;20195;-74
2023/04/21 05:01:14;;;;;;;11.48;10.38;;;6.50;99.90;;;;;;5048768;28;20573;-75
2023/04/21 05:03:40;;;;;;;13.27;11.35;;;6.60;99.90;;;;;;5044464;28;20812;-75
2023/04/21 05:06:06;;;;;;;11.63;10.43;;;6.60;99.90;;;;;;5054791;28;20238;-75
2023/04/21 05:08:32;;;;;;;12.13;10.77;;;6.60;99.90;;;;;;5049970;28;20212;-75
2023/04/21 05:10:58;;;;;;;12.63;11.05;;;6.60;99.90;;;;;;5052389;28;20188;-75
2023/04/21 05:13:23;;;;;;;13.15;11.55;;;6.70;99.90;;;;;;5047150;28;20579;-75
2023/04/21 05:15:49;;;;;;;12.32;11.05;;;6.70;99.90;;;;;;5039292;28;20209;-74
2023/04/21 05:18:14;;;;;;;15.02;11.45;;;6.80;99.90;;;;;;5047268;28;20183;-75
2023/04/21 05:20:41;;;;;;;13.05;11.73;;;6.80;99.90;;;;;;5045500;28;20207;-75
2023/04/21 05:23:07;;;;;;;11.55;10.45;;;6.90;99.90;;;;;;5046894;28;20183;-75
2023/04/21 05:25:32;;;;;;;12.80;11.50;;;7.00;99.90;;;;;;5045642;28;20563;-75
2023/04/21 05:27:58;;;;;;;13.13;11.75;;;7.10;99.90;;;;;;5048346;28;20207;-76
2023/04/21 05:30:24;;;;;;;12.30;11.07;;;7.20;99.90;;;;;;5046443;28;20186;-75
2023/04/21 05:32:50;;;;;;;15.13;11.10;;;7.30;99.90;;;;;;5050510;28;20184;-75
2023/04/21 05:35:16;;;;;;;12.02;10.00;;;7.40;99.90;;;;;;5029132;28;20207;-75
2023/04/21 05:37:41;;;;;;;14.35;10.82;;;7.50;99.90;;;;;;5046892;28;20192;-75
2023/04/21 05:40:07;;;;;;;12.10;10.90;;;7.70;99.90;;;;;;5047151;28;20252;-75
2023/04/21 05:42:33;;;;;;;15.52;11.68;;;7.80;99.90;;;;;;5047463;28;20643;-76
2023/04/21 05:44:58;;;;;;;13.30;11.93;;;8.00;99.90;;;;;;5035416;28;20244;-75
2023/04/21 05:47:24;;;;;;;12.27;11.07;;;8.10;99.90;;;;;;5056364;28;20225;-78
2023/04/21 05:49:53;;;;;;;13.43;12.10;;;8.20;99.90;;;;;;5060582;28;20200;-77
2023/04/21 05:52:20;;;;;;;14.35;12.15;;;8.40;99.90;;;;;;5047243;28;20188;-75
2023/04/21 05:54:46;;;;;;;11.52;10.40;;;8.50;99.90;;;;;;5050223;28;20208;-77
2023/04/21 05:57:12;;;;;;;12.25;10.80;;;8.60;99.90;;;;;;5052269;28;20237;-77
2023/04/21 05:59:37;;;;;;;11.80;10.60;;;8.70;99.90;;;;;;5047644;28;20188;-75
2023/04/21 06:02:03;;;;;;;12.90;10.93;;;8.80;99.90;;;;;;5049408;28;20195;-77
2023/04/21 06:04:28;;;;;;;12.48;10.82;;;8.90;99.90;;;;;;5043843;28;20231;-77
2023/04/21 06:06:54;;;;;;;15.45;10.32;;;9.00;99.90;;;;;;5048366;28;20201;-76
2023/04/21 06:09:20;;;;;;;12.70;10.93;;;9.10;99.90;;;;;;5046059;28;20279;-78
2023/04/21 06:11:45;;;;;;;12.07;10.88;;;9.30;99.90;;;;;;5046557;28;20197;-76
2023/04/21 06:14:11;;;;;;;11.60;10.38;;;9.30;99.90;;;;;;5029807;28;20180;-76
2023/04/21 06:16:37;;;;;;;11.60;10.38;;;9.40;99.90;;;;;;5043967;28;20238;-77
2023/04/21 06:19:02;;;;;;;12.00;10.77;;;9.50;99.90;;;;;;5047161;28;20666;-75
2023/04/21 06:21:28;;;;;;;10.77;9.60;;;9.60;99.90;;;;;;5042334;28;20212;-75
2023/04/21 06:23:53;;;;;;;12.30;10.57;;;9.60;99.90;;;;;;5045301;28;20251;-76
2023/04/21 06:26:19;;;;;;;13.85;10.60;;;9.70;99.90;;;;;;5052333;28;20200;-75
2023/04/21 06:28:45;;;;;;;11.13;10.13;;;9.70;99.90;;;;;;5053102;28;20175;-75
2023/04/21 06:31:14;;;;;;;12.20;10.25;;;9.70;99.90;;;;;;5046747;28;20238;-75
2023/04/21 06:33:40;;;;;;;10.82;9.75;;;9.70;99.90;;;;;;5049814;28;20230;-76
2023/04/21 06:36:05;;;;;;;10.40;9.40;;;9.80;99.90;;;;;;5051349;28;20200;-75
2023/04/21 06:38:31;;;;;;;12.32;10.10;;;9.70;99.90;;;;;;5051920;28;20179;-75
2023/04/21 06:40:57;;;;;;;10.57;8.85;;;9.80;99.90;;;;;;5047842;28;20622;-75
2023/04/21 06:43:22;;;;;;;12.15;9.73;;;9.90;99.90;;;;;;5030816;28;20180;-74
2023/04/21 06:45:48;;;;;;;10.82;9.55;;;10.00;99.90;;;;;;5045277;28;20574;-74
2023/04/21 06:48:14;;;;;;;10.70;9.57;;;10.20;99.90;;;;;;5050803;28;20175;-74
2023/04/21 06:50:39;;;;;;;11.90;9.43;;;10.30;99.90;;;;;;5032542;28;20181;-75
2023/04/21 06:53:05;;;;;;;10.52;9.32;;;10.50;99.90;;;;;;5044416;28;20187;-75
2023/04/21 06:55:31;;;;;;;9.45;8.55;;;10.40;99.90;;;;;;5043197;28;20208;-76
2023/04/21 06:57:56;;;;;;;10.40;9.48;;;10.60;99.90;;;;;;5047006;28;20222;-76
2023/04/21 07:00:22;;;;;;;12.93;8.32;;;10.80;99.90;;;;;;5053425;28;20199;-76
2023/04/21 07:02:48;;;;;;;10.82;8.82;;;11.00;99.90;;;;;;5033432;28;20180;-75
2023/04/21 07:05:13;;;;;;;9.50;8.60;;;11.10;99.90;;;;;;5056447;28;20536;-76
2023/04/21 07:07:39;;;;;;;14.75;8.60;;;11.30;99.90;;;;;;5046504;28;20183;-76
2023/04/21 07:10:06;;;;;;;10.40;9.35;;;11.50;99.90;;;;;;5041722;28;20756;-76
2023/04/21 07:12:31;;;;;;;9.27;8.40;;;11.70;99.90;;;;;;5048352;28;20180;-75
2023/04/21 07:14:57;;;;;;;8.57;7.80;;;11.80;99.90;;;;;;5053771;28;20214;-76
2023/04/21 07:17:22;;;;;;;9.07;7.93;;;11.90;99.90;;;;;;5046892;28;20558;-76
2023/04/21 07:19:48;;;;;;;8.35;7.65;;;12.10;99.90;;;;;;5044698;28;20188;-75
2023/04/21 07:22:14;;;;;;;8.45;7.75;;;12.30;99.90;;;;;;5053408;28;20215;-75
2023/04/21 07:24:39;;;;;;;8.40;7.53;;;12.40;99.90;;;;;;5038837;28;20336;-75
2023/04/21 07:27:05;;;;;;;8.68;7.85;;;12.60;99.90;;;;;;5049792;28;20190;-77
2023/04/21 07:29:31;;;;;;;10.68;8.23;;;12.60;99.90;;;;;;5050721;28;20566;-77
2023/04/21 07:31:57;;;;;;;9.57;8.68;;;12.50;99.90;;;;;;5051341;28;20313;-74
2023/04/21 07:34:23;;;;;;;8.75;8.00;;;12.50;99.90;;;;;;5052793;28;20345;-75
2023/04/21 07:36:50;;;;;;;8.35;7.55;;;12.60;99.90;;;;;;5048886;28;20492;-75
2023/04/21 07:39:16;;;;;;;10.02;7.55;;;12.70;99.90;;;;;;5054395;28;20183;-76
2023/04/21 07:41:42;;;;;;;8.57;7.82;;;12.90;99.90;;;;;;5050331;28;20229;-76
2023/04/21 07:44:07;;;;;;;8.77;7.97;;;13.00;99.90;;;;;;5039464;28;20677;-75
2023/04/21 07:46:33;;;;;;;8.25;7.55;;;13.10;99.90;;;;;;5042436;28;21045;-75
2023/04/21 07:48:59;;;;;;;9.60;8.18;;;13.30;99.90;;;;;;5047993;28;20194;-75
2023/04/21 07:51:26;;;;;;;7.78;6.97;;;13.30;99.90;;;;;;5047901;28;20529;-76
2023/04/21 07:53:52;;;;;;;7.82;7.03;;;13.30;99.90;;;;;;5060128;28;20712;-76
2023/04/21 07:56:18;;;;;;;7.72;7.03;;;13.30;99.90;;;;;;5054178;28;20295;-75
2023/04/21 07:58:44;;;;;;;7.55;6.88;;;13.50;99.90;;;;;;5055895;28;20191;-75
2023/04/21 08:01:09;;;;;;;7.45;6.72;;;13.40;99.90;;;;;;5051709;28;20245;-75
2023/04/21 08:03:38;;;;;;;6.72;6.22;;;13.50;99.90;;;;;;5053899;28;20176;-75
2023/04/21 08:06:04;;;;;;;5.82;5.38;;;13.40;99.90;;;;;;5050301;28;20205;-75
2023/04/21 08:08:30;;;;;;;6.75;6.25;;;13.40;99.90;;;;;;5049780;28;20326;-75
2023/04/21 08:10:55;;;;;;;6.55;5.95;;;13.40;99.90;;;;;;5036986;28;20746;-76
2023/04/21 08:13:24;;;;;;;5.85;5.25;;;13.50;99.90;;;;;;5048292;28;20172;-76
2023/04/21 08:15:52;;;;;;;5.40;5.00;;;13.60;99.90;;;;;;5054873;28;20199;-74
2023/04/21 08:18:18;;;;;;;5.78;5.28;;;13.70;99.90;;;;;;5044008;28;20178;-75
2023/04/21 08:20:47;;;;;;;5.18;4.78;;;13.80;99.90;;;;;;5053623;28;20203;-75
2023/04/21 08:23:13;;;;;;;6.55;5.13;;;13.90;99.90;;;;;;5052733;28;20180;-75
2023/04/21 08:25:39;;;;;;;5.88;4.93;;;14.00;99.90;;;;;;5043576;28;20643;-75
2023/04/21 08:28:05;;;;;;;5.65;5.25;;;14.20;99.90;;;;;;5055684;28;20179;-78
2023/04/21 08:30:30;;;;;;;5.45;5.03;;;14.30;99.90;;;;;;5050507;28;20687;-77
2023/04/21 08:32:56;;;;;;;5.18;4.65;;;14.50;99.90;;;;;;5051289;28;20177;-76
2023/04/21 08:35:21;;;;;;;5.28;4.75;;;14.70;99.90;;;;;;5056246;28;20581;-76
2023/04/21 08:37:47;;;;;;;6.25;5.72;;;14.80;99.90;;;;;;5051269;28;20184;-74
2023/04/21 08:40:13;;;;;;;6.15;5.65;;;14.90;99.90;;;;;;5033845;28;20203;-73
2023/04/21 08:42:38;;;;;;;6.25;5.63;;;14.90;99.90;;;;;;5053193;28;20187;-74
2023/04/21 08:45:05;;;;;;;6.00;5.50;;;15.20;99.90;;;;;;5052085;28;20196;-75
2023/04/21 08:47:32;;;;;;;6.03;5.43;;;15.50;99.90;;;;;;5047897;28;20199;-74
2023/04/21 08:49:58;;;;;;;6.47;5.95;;;15.80;99.90;;;;;;5048263;28;20210;-74
2023/04/21 08:52:24;;;;;;;6.20;5.70;;;15.80;99.90;;;;;;5047181;28;20213;-75
2023/04/21 08:54:52;;;;;;;6.75;6.05;;;15.50;99.90;;;;;;5047161;28;20288;-75
2023/04/21 08:57:18;;;;;;;5.40;4.90;;;15.50;99.90;;;;;;5046095;28;20605;-75
2023/04/21 08:59:44;;;;;;;5.35;4.85;;;15.70;99.90;;;;;;5043891;28;20246;-74
2023/04/21 09:02:14;;;;;;;5.15;4.75;;;15.90;99.90;;;;;;5042510;28;20185;-73
2023/04/21 09:04:46;;;;;;;4.45;4.15;;;16.10;99.90;;;;;;5044792;28;20211;-73
2023/04/21 09:07:32;;;;;;;4.10;3.90;;;16.20;99.90;;;;;;5049026;28;20179;-73
2023/04/21 09:10:01;;;;;;;4.25;3.88;;;15.90;99.90;;;;;;5051190;28;20180;-73
2023/04/21 09:12:27;;;;;;;5.28;4.88;;;16.30;99.90;;;;;;5047939;28;20180;-73
2023/04/21 09:14:53;;;;;;;5.43;5.03;;;16.70;99.90;;;;;;5061044;28;20293;-73
2023/04/21 09:17:22;;;;;;;4.70;4.30;;;18.10;99.90;;;;;;5051666;28;20268;-74
2023/04/21 09:19:47;;;;;;;4.10;3.72;;;20.40;97.40;;;;;;5048002;28;20216;-74
2023/04/21 09:22:17;;;;;;;4.32;3.97;;;22.10;91.40;;;;;;5045386;28;20280;-73
2023/04/21 09:24:47;;;;;;;4.85;4.20;;;23.00;82.40;;;;;;5043405;28;20254;-73
2023/04/21 09:27:15;;;;;;;4.22;3.88;;;23.30;75.60;;;;;;5044358;28;20172;-73
2023/04/21 09:29:46;;;;;;;4.10;3.80;;;22.70;77.20;;;;;;5052360;28;20267;-73
2023/04/21 09:32:17;;;;;;;3.80;3.60;;;24.80;74.20;;;;;;5052123;28;20180;-73
2023/04/21 09:34:43;;;;;;;3.90;3.42;;;24.10;69.20;;;;;;5046566;28;20702;-74
2023/04/21 09:37:10;;;;;;;3.60;3.30;;;23.80;71.90;;;;;;5048096;28;20180;-73
2023/04/21 09:39:36;;;;;;;3.50;3.28;;;26.60;66.00;;;;;;5051386;28;20263;-74
2023/04/21 09:42:02;;;;;;;3.90;3.65;;;29.80;59.20;;;;;;5043885;28;20254;-74
2023/04/21 09:44:28;;;;;;;3.67;3.38;;;28.50;56.00;;;;;;5046905;28;20208;-75
2023/04/21 09:47:01;;;;;;;3.17;2.97;;;29.40;55.70;;;;;;5051145;28;20551;-74
2023/04/21 09:49:30;;;;;;;3.38;3.17;;;30.90;52.60;;;;;;5047637;28;20549;-76
2023/04/21 09:51:58;;;;;;;3.42;3.03;;;33.10;50.20;;;;;;5050108;28;20274;-79
2023/04/21 09:54:31;;;;;;;3.15;3.00;;;33.50;47.60;;;;;;5049235;28;20188;-75
2023/04/21 09:57:02;;;;;;;3.50;3.20;;;34.40;45.70;;;;;;5043197;28;20183;-75
2023/04/21 09:59:35;;;;;;;3.00;2.80;;;31.90;48.60;;;;;;5051152;28;20258;-74
2023/04/21 10:02:05;;;;;;;2.97;2.67;;;33.10;47.20;;;;;;5052254;28;20575;-74
2023/04/21 10:04:32;;;;;;;3.28;2.88;;;33.20;45.90;;;;;;5053256;28;20225;-73
2023/04/21 10:07:01;;;;;;;2.92;2.83;;;30.90;46.30;;;;;;5048135;28;20463;-74
2023/04/21 10:09:33;;;;;;;2.58;2.47;;;30.60;49.30;;;;;;5054361;28;20233;-73
2023/04/21 10:12:01;;;;;;;3.22;3.00;;;30.80;48.70;;;;;;5051340;28;20176;-74
2023/04/21 10:14:27;;;;;;;3.10;2.80;;;32.70;46.60;;;;;;5046737;28;20191;-74
2023/04/21 10:17:02;;;;;;;2.38;2.22;;;33.80;46.10;;;;;;5052757;28;20175;-75
2023/04/21 10:19:27;;;;;;;2.63;2.42;;;34.40;43.50;;;;;;5054881;28;20185;-74
2023/04/21 10:21:56;;;;;;;2.53;2.28;;;34.50;42.20;;;;;;5049414;28;20280;-74
2023/04/21 10:24:22;;;;;;;2.42;2.30;;;35.10;43.10;;;;;;5049829;28;20191;-74
2023/04/21 10:26:50;;;;;;;2.65;2.30;;;33.60;42.90;;;;;;5046970;28;20727;-75
2023/04/21 10:29:26;;;;;;;3.80;2.17;;;33.20;43.10;;;;;;5047861;28;20219;-74
2023/04/21 10:31:52;;;;;;;4.10;2.50;;;33.10;43.00;;;;;;5050838;28;20557;-74
2023/04/21 10:34:39;;;;;;;2.60;2.50;;;29.30;47.10;;;;;;5052370;28;20188;-76
2023/04/21 10:37:05;;;;;;;2.63;2.42;;;31.50;46.60;;;;;;5044761;28;20268;-74
2023/04/21 10:39:38;;;;;;;2.70;2.60;;;33.70;43.10;;;;;;5045110;28;20255;-73
2023/04/21 10:42:19;;;;;;;2.78;2.58;;;32.00;44.60;;;;;;5050372;28;20175;-74
2023/04/21 10:44:57;;;;;;;2.72;2.63;;;33.20;44.10;;;;;;5051335;28;20340;-73
2023/04/21 10:47:42;;;;;;;2.55;2.45;;;33.50;42.70;;;;;;5045049;28;20179;-73
2023/04/21 10:50:29;;;;;;;2.58;2.47;;;35.80;42.50;;;;;;5043106;28;20180;-74
2023/04/21 10:53:10;;;;;;;2.35;2.25;;;36.40;40.90;;;;;;5046711;28;20192;-74
2023/04/21 10:55:35;;;;;;;2.58;2.38;;;36.50;40.70;;;;;;5043831;28;20202;-74
2023/04/21 10:58:04;;;;;;;2.42;2.22;;;36.00;40.60;;;;;;5051840;28;20194;-74
2023/04/21 11:00:30;;;;;;;2.63;2.53;;;36.10;40.20;;;;;;5051571;28;20593;-74
2023/04/21 11:03:01;;;;;;;2.53;2.42;;;35.90;41.40;;;;;;5033362;28;20704;-75
2023/04/21 11:05:37;;;;;;;2.50;2.35;;;37.80;39.90;;;;;;5049170;28;20231;-75
2023/04/21 11:08:04;;;;;;;2.10;2.00;;;38.50;39.70;;;;;;5046462;28;20598;-74
2023/04/21 11:10:39;;;;;;;2.40;2.30;;;36.00;40.10;;;;;;5049234;28;20178;-73
2023/04/21 11:13:06;;;;;;;2.40;2.30;;;35.30;41.10;;;;;;5051640;28;20171;-72
2023/04/21 11:15:32;;;;;;;2.58;2.35;;;33.70;42.60;;;;;;5042473;28;20194;-73
2023/04/21 11:17:58;;;;;;;2.80;2.60;;;33.20;44.00;;;;;;5041751;28;20693;-74
2023/04/21 11:20:23;;;;;;;2.63;2.42;;;34.00;44.20;;;;;;5039092;28;20294;-73
2023/04/21 11:22:52;;;;;;;4.28;2.10;;;37.10;40.00;;;;;;5043951;28;20219;-73
2023/04/21 11:25:18;;;;;;;2.38;2.28;;;35.40;40.80;;;;;;5045819;28;20238;-74
2023/04/21 11:27:53;;;;;;;2.35;2.15;;;35.30;40.30;;;;;;5054106;28;20204;-76
2023/04/21 11:30:19;;;;;;;2.72;2.40;;;34.50;41.40;;;;;;5051681;28;20182;-77
2023/04/21 11:32:45;;;;;;;2.63;2.42;;;35.80;40.80;;;;;;5050122;28;21169;-77
2023/04/21 11:35:11;;;;;;;2.20;2.10;;;37.60;38.10;;;;;;5046941;28;20210;-74
2023/04/21 11:37:36;;;;;;;2.22;2.13;;;37.60;38.50;;;;;;5055161;28;20536;-73
2023/04/21 11:40:05;;;;;;;2.10;2.00;;;34.90;41.20;;;;;;5050151;28;20277;-73
2023/04/21 11:42:30;;;;;;;2.13;1.90;;;34.90;41.40;;;;;;5050561;28;20534;-71
2023/04/21 11:44:57;;;;;;;2.13;2.03;;;34.50;40.60;;;;;;5053080;28;20210;-71
2023/04/21 11:47:27;;;;;;;2.10;2.00;;;35.00;41.20;;;;;;5038939;28;20175;-70
2023/04/21 11:49:55;;;;;;;2.40;2.20;;;36.60;39.20;;;;;;5050284;28;20167;-71
2023/04/21 11:52:31;;;;;;;2.72;2.10;;;35.30;39.90;;;;;;5050324;28;20177;-69
2023/04/21 11:55:15;;;;;;;2.50;2.40;;;37.20;39.20;;;;;;5052084;28;20280;-74
2023/04/21 11:57:41;;;;;;;2.40;2.30;;;36.10;39.60;;;;;;5053931;28;20566;-74
2023/04/21 12:00:10;;;;;;;2.22;2.13;;;35.30;39.30;;;;;;5045265;28;20199;-73
2023/04/21 12:02:36;;;;;;;2.03;1.92;;;33.80;41.40;;;;;;5051074;28;20656;-72
2023/04/21 12:05:03;;;;;;;2.40;2.30;;;33.20;41.00;;;;;;5052086;28;20229;-72
2023/04/21 12:07:31;;;;;;;2.20;2.10;;;32.00;42.50;;;;;;5049853;28;20180;-72
2023/04/21 12:09:57;;;;;;;2.45;2.25;;;30.70;45.10;;;;;;5033327;28;20191;-74
2023/04/21 12:12:23;;;;;;;2.10;2.00;;;33.20;43.00;;;;;;5051270;28;20262;-72
2023/04/21 12:14:50;;;;;;;2.40;2.30;;;34.20;42.30;;;;;;5050755;28;20626;-73
2023/04/21 12:17:16;;;;;;;2.15;2.05;;;33.20;42.80;;;;;;5053492;28;20183;-73
2023/04/21 12:19:42;;;;;;;2.30;2.20;;;34.30;41.50;;;;;;5046808;28;20647;-74
2023/04/21 12:22:09;;;;;;;2.80;2.17;;;34.60;41.50;;;;;;5042268;28;20179;-74
2023/04/21 12:24:35;;;;;;;2.58;2.17;;;34.00;41.20;;;;;;5055561;28;20184;-74
2023/04/21 12:27:01;;;;;;;2.13;2.03;;;32.50;43.10;;;;;;5046757;28;20176;-74
2023/04/21 12:29:27;;;;;;;2.00;1.90;;;33.70;41.80;;;;;;5051788;28;20187;-74
2023/04/21 12:31:53;;;;;;;2.22;2.05;;;34.40;41.20;;;;;;5048011;28;20183;-74
2023/04/21 12:34:19;;;;;;;2.20;2.10;;;33.60;41.80;;;;;;5049512;28;20317;-73
2023/04/21 12:36:45;;;;;;;2.42;2.28;;;33.30;42.50;;;;;;5048251;28;20293;-74
2023/04/21 12:39:10;;;;;;;1.85;1.75;;;33.90;41.60;;;;;;5055702;28;20183;-74